createdAt,value
2023-05-14T00:00:20.603Z,12.18
2023-05-14T00:02:50.480Z,11.90
2023-05-14T00:05:17.096Z,12.00
2023-05-14T00:07:43.771Z,12.17
2023-05-14T00:10:14.607Z,11.82
2023-05-14T00:12:41.236Z,12.00
2023-05-14T00:15:17.249Z,11.82
2023-05-14T00:17:44.014Z,11.91
2023-05-14T00:20:14.084Z,11.79
2023-05-14T00:22:41.071Z,11.80
2023-05-14T00:25:08.903Z,11.78
2023-05-14T00:27:38.460Z,11.91
2023-05-14T00:30:07.006Z,11.81
2023-05-14T00:32:34.099Z,11.88
2023-05-14T00:35:02.975Z,11.78
2023-05-14T00:37:29.578Z,11.77
2023-05-14T00:39:56.192Z,11.67
2023-05-14T00:42:22.737Z,11.65
2023-05-14T00:44:49.254Z,11.66
2023-05-14T00:47:15.970Z,11.63
2023-05-14T00:49:43.269Z,11.65
2023-05-14T00:52:11.455Z,11.62
2023-05-14T00:54:38.234Z,11.63
2023-05-14T00:57:06.763Z,11.62
2023-05-14T00:59:33.652Z,11.60
2023-05-14T01:02:00.582Z,11.47
2023-05-14T01:04:30.328Z,11.58
2023-05-14T01:07:34.534Z,11.55
2023-05-14T01:10:06.121Z,11.42
2023-05-14T01:12:44.201Z,11.42
2023-05-14T01:15:19.409Z,11.48
2023-05-14T01:17:55.586Z,11.45
2023-05-14T01:20:23.317Z,11.45
2023-05-14T01:22:50.050Z,11.39
2023-05-14T01:25:16.680Z,11.41
2023-05-14T01:27:51.247Z,11.45
2023-05-14T01:30:35.898Z,11.42
2023-05-14T01:33:21.149Z,11.38
2023-05-14T01:35:49.081Z,11.34
2023-05-14T01:38:18.704Z,11.36
2023-05-14T01:40:46.651Z,11.33
2023-05-14T01:43:13.895Z,11.25
2023-05-14T01:45:40.600Z,11.31
2023-05-14T01:48:07.375Z,11.25
2023-05-14T01:50:34.332Z,11.25
2023-05-14T01:53:00.943Z,11.21
2023-05-14T01:55:27.482Z,11.20
2023-05-14T01:57:54.343Z,11.20
2023-05-14T02:00:22.172Z,11.18
2023-05-14T02:02:48.914Z,11.20
2023-05-14T02:05:15.727Z,11.19
2023-05-14T02:07:42.310Z,11.12
2023-05-14T02:10:09.572Z,11.17
2023-05-14T02:12:36.317Z,11.22
2023-05-14T02:15:03.849Z,11.12
2023-05-14T02:17:30.478Z,11.18
2023-05-14T02:19:57.035Z,11.15
2023-05-14T02:22:23.637Z,11.14
2023-05-14T02:24:51.447Z,11.08
2023-05-14T02:27:18.151Z,11.11
2023-05-14T02:29:45.022Z,11.10
2023-05-14T02:32:11.591Z,11.06
2023-05-14T02:34:38.732Z,11.09
2023-05-14T02:37:05.624Z,11.01
2023-05-14T02:39:32.321Z,11.04
2023-05-14T02:41:59.067Z,11.00
2023-05-14T02:44:25.631Z,11.01
2023-05-14T02:46:52.255Z,10.99
2023-05-14T02:49:18.867Z,10.91
2023-05-14T02:51:45.451Z,10.95
2023-05-14T02:54:11.989Z,10.97
2023-05-14T02:56:38.587Z,10.96
2023-05-14T02:59:05.176Z,10.95
2023-05-14T03:01:32.233Z,10.90
2023-05-14T03:03:59.199Z,10.90
2023-05-14T03:06:26.043Z,10.88
2023-05-14T03:08:52.657Z,10.88
2023-05-14T03:11:19.262Z,10.82
2023-05-14T03:13:45.838Z,10.82
2023-05-14T03:16:12.623Z,10.74
2023-05-14T03:18:39.414Z,10.76
2023-05-14T03:21:06.175Z,10.75
2023-05-14T03:23:34.996Z,10.64
2023-05-14T03:26:02.203Z,10.65
2023-05-14T03:28:28.962Z,10.64
2023-05-14T03:30:58.458Z,10.57
2023-05-14T03:33:31.338Z,10.52
2023-05-14T03:36:00.583Z,10.45
2023-05-14T03:38:34.769Z,10.51
2023-05-14T03:41:01.444Z,10.35
2023-05-14T03:43:30.512Z,10.18
2023-05-14T03:45:57.171Z,10.50
2023-05-14T03:48:23.868Z,10.52
2023-05-14T03:50:51.356Z,10.58
2023-05-14T03:53:17.965Z,10.51
2023-05-14T03:55:44.525Z,10.67
2023-05-14T03:58:14.212Z,10.65
2023-05-14T04:00:42.501Z,10.70
2023-05-14T04:03:09.210Z,10.73
2023-05-14T04:05:36.013Z,10.82
2023-05-14T04:08:02.601Z,10.83
2023-05-14T04:10:29.310Z,10.83
2023-05-14T04:12:56.206Z,10.84
2023-05-14T04:15:23.068Z,10.90
2023-05-14T04:17:49.688Z,10.90
2023-05-14T04:20:16.411Z,10.95
2023-05-14T04:22:42.936Z,10.92
2023-05-14T04:25:09.753Z,10.99
2023-05-14T04:27:36.315Z,11.07
2023-05-14T04:30:03.124Z,11.13
2023-05-14T04:32:30.363Z,11.17
2023-05-14T04:34:57.012Z,11.17
2023-05-14T04:37:23.652Z,11.25
2023-05-14T04:39:50.189Z,11.26
2023-05-14T04:42:16.855Z,11.34
2023-05-14T04:44:46.293Z,11.23
2023-05-14T04:47:16.025Z,11.30
2023-05-14T04:49:43.460Z,11.32
2023-05-14T04:52:18.826Z,11.52
2023-05-14T04:54:54.235Z,11.58
2023-05-14T04:57:21.164Z,11.58
2023-05-14T04:59:47.974Z,11.45
2023-05-14T05:02:14.473Z,11.80
2023-05-14T05:04:41.053Z,11.80
2023-05-14T05:07:07.640Z,11.97
2023-05-14T05:09:34.268Z,12.11
2023-05-14T05:12:01.633Z,12.23
2023-05-14T05:14:28.201Z,12.38
2023-05-14T05:16:55.787Z,12.55
2023-05-14T05:19:39.568Z,12.38
2023-05-14T05:22:09.687Z,12.72
2023-05-14T05:24:38.350Z,13.36
2023-05-14T05:27:05.636Z,12.96
2023-05-14T05:29:32.408Z,13.01
2023-05-14T05:32:02.420Z,13.04
2023-05-14T05:34:29.066Z,13.08
2023-05-14T05:36:56.275Z,12.82
2023-05-14T05:39:25.395Z,12.95
2023-05-14T05:44:33.234Z,12.77
2023-05-14T05:46:59.961Z,12.65
2023-05-14T05:49:27.804Z,12.72
2023-05-14T05:51:57.794Z,12.49
2023-05-14T05:54:35.316Z,12.55
2023-05-14T05:57:07.178Z,12.51
2023-05-14T05:59:36.907Z,12.59
2023-05-14T06:02:03.761Z,12.70
2023-05-14T06:04:35.832Z,12.96
2023-05-14T06:07:02.595Z,13.10
2023-05-14T06:09:30.532Z,12.93
2023-05-14T06:12:03.248Z,13.40
2023-05-14T06:14:29.922Z,14.31
2023-05-14T06:16:56.598Z,14.36
2023-05-14T06:19:23.403Z,14.04
2023-05-14T06:21:50.065Z,13.80
2023-05-14T06:24:16.728Z,14.24
2023-05-14T06:26:49.288Z,14.59
2023-05-14T06:29:19.119Z,14.40
2023-05-14T06:31:46.625Z,14.00
2023-05-14T06:34:16.953Z,14.36
2023-05-14T06:36:51.243Z,14.62
2023-05-14T06:39:17.945Z,14.41
2023-05-14T06:41:47.746Z,14.74
2023-05-14T06:44:22.219Z,14.53
2023-05-14T06:46:52.862Z,14.62
2023-05-14T06:49:23.958Z,14.39
2023-05-14T06:51:50.605Z,14.30
2023-05-14T06:54:18.957Z,14.08
2023-05-14T06:56:48.580Z,13.78
2023-05-14T06:59:15.273Z,13.68
2023-05-14T07:01:44.010Z,13.72
2023-05-14T07:04:10.790Z,13.81
2023-05-14T07:06:40.041Z,13.61
2023-05-14T07:09:10.708Z,13.62
2023-05-14T07:11:42.623Z,13.38
2023-05-14T07:14:09.416Z,13.50
2023-05-14T07:16:36.341Z,13.84
2023-05-14T07:19:03.067Z,14.11
2023-05-14T07:21:29.601Z,14.28
2023-05-14T07:23:56.226Z,14.34
2023-05-14T07:26:24.513Z,14.30
2023-05-14T07:28:51.158Z,14.17
2023-05-14T07:31:17.711Z,14.05
2023-05-14T07:33:44.380Z,13.98
2023-05-14T07:36:11.163Z,13.82
2023-05-14T07:38:37.914Z,13.78
2023-05-14T07:41:04.777Z,13.82
2023-05-14T07:43:31.757Z,13.89
2023-05-14T07:45:58.336Z,13.96
2023-05-14T07:48:24.971Z,14.04
2023-05-14T07:50:51.964Z,14.11
2023-05-14T07:53:18.661Z,14.11
2023-05-14T07:55:48.148Z,14.47
2023-05-14T07:58:14.901Z,14.51
2023-05-14T08:00:41.449Z,14.47
2023-05-14T08:03:08.138Z,14.45
2023-05-14T08:05:34.791Z,14.31
2023-05-14T08:08:01.683Z,14.12
2023-05-14T08:10:28.674Z,14.10
2023-05-14T08:13:03.068Z,14.13
2023-05-14T08:27:43.423Z,14.50
2023-05-14T08:46:39.052Z,16.92
2023-05-14T08:57:18.918Z,17.41
2023-05-14T08:59:45.676Z,17.39
2023-05-14T09:02:15.305Z,17.48
2023-05-14T09:04:42.623Z,17.86
2023-05-14T09:07:09.512Z,18.01
2023-05-14T09:09:36.741Z,17.80
2023-05-14T09:12:03.662Z,17.48
2023-05-14T09:14:30.278Z,17.93
2023-05-14T09:16:57.186Z,17.92
2023-05-14T09:19:24.300Z,17.85
2023-05-14T09:21:51.091Z,17.41
2023-05-14T09:24:22.690Z,17.38
2023-05-14T09:26:58.917Z,17.52
2023-05-14T09:29:26.648Z,17.82
2023-05-14T09:31:54.925Z,18.09
2023-05-14T09:34:30.665Z,17.86
2023-05-14T09:37:00.435Z,17.95
2023-05-14T09:39:30.304Z,18.05
2023-05-14T09:41:57.209Z,17.93
2023-05-14T09:44:35.515Z,17.67
2023-05-14T09:47:02.149Z,18.01
2023-05-14T09:49:28.768Z,18.07
2023-05-14T09:51:59.981Z,18.05
2023-05-14T09:54:27.480Z,18.23
2023-05-14T09:56:56.592Z,17.93
2023-05-14T09:59:23.300Z,18.26
2023-05-14T10:01:52.954Z,18.30
2023-05-14T10:04:20.574Z,18.15
2023-05-14T10:06:52.953Z,17.99
2023-05-14T10:09:29.207Z,18.25
2023-05-14T10:12:11.605Z,18.07
2023-05-14T10:14:46.742Z,18.35
2023-05-14T10:17:18.897Z,18.46
2023-05-14T10:19:57.209Z,18.35
2023-05-14T10:22:45.288Z,18.23
2023-05-14T10:25:12.374Z,18.47
2023-05-14T10:27:45.604Z,18.55
2023-05-14T10:30:13.115Z,18.63
2023-05-14T10:33:07.003Z,18.48
2023-05-14T10:35:57.766Z,18.36
2023-05-14T10:38:33.938Z,18.57
2023-05-14T10:41:06.184Z,18.35
2023-05-14T10:43:44.992Z,18.31
2023-05-14T10:46:14.827Z,18.25
2023-05-14T10:48:49.719Z,18.49
2023-05-14T10:51:17.623Z,18.41
2023-05-14T10:53:44.725Z,17.96
2023-05-14T10:56:14.303Z,18.13
2023-05-14T10:58:46.164Z,18.15
2023-05-14T11:01:13.821Z,17.98
2023-05-14T11:04:15.122Z,18.02
2023-05-14T11:06:46.008Z,17.95
2023-05-14T11:09:16.066Z,17.77
2023-05-14T11:12:15.177Z,17.76
2023-05-14T11:14:55.661Z,17.68
2023-05-14T11:17:25.011Z,17.80
2023-05-14T11:19:51.813Z,17.89
2023-05-14T11:22:31.581Z,17.97
2023-05-14T11:24:58.319Z,17.94
2023-05-14T11:27:36.036Z,17.94
2023-05-14T11:30:09.743Z,18.02
2023-05-14T11:32:59.290Z,18.15
2023-05-14T11:35:33.175Z,18.43
2023-05-14T11:38:13.202Z,18.49
2023-05-14T11:41:20.547Z,18.81
2023-05-14T11:44:02.263Z,18.97
2023-05-14T11:49:29.860Z,18.75
2023-05-14T11:52:03.676Z,18.95
2023-05-14T11:54:32.873Z,18.85
2023-05-14T11:57:02.067Z,19.02
2023-05-14T11:59:35.113Z,18.67
2023-05-14T12:02:26.134Z,18.60
2023-05-14T12:07:38.645Z,18.42
2023-05-14T12:10:18.272Z,18.52
2023-05-14T12:12:48.976Z,18.65
2023-05-14T12:15:44.524Z,18.65
2023-05-14T12:18:27.792Z,18.92
2023-05-14T12:21:51.334Z,18.84
2023-05-14T12:24:27.592Z,18.92
2023-05-14T12:27:31.922Z,19.22
2023-05-14T12:30:23.302Z,19.08
2023-05-14T12:43:35.705Z,19.10
2023-05-14T12:46:20.862Z,19.13
2023-05-14T12:58:33.268Z,19.12
2023-05-14T13:01:22.016Z,19.11
2023-05-14T13:04:13.952Z,19.02
2023-05-14T13:12:39.174Z,19.10
2023-05-14T13:19:40.083Z,19.18
2023-05-14T13:21:46.389Z,19.12
2023-05-14T13:37:09.860Z,19.01
2023-05-14T13:45:12.941Z,18.97
2023-05-14T13:50:55.814Z,19.21
2023-05-14T14:01:12.938Z,18.82
2023-05-14T14:41:38.854Z,19.03
2023-05-14T14:44:08.136Z,18.84
2023-05-14T15:12:10.923Z,18.84
2023-05-14T15:14:37.526Z,18.78
2023-05-14T15:17:04.440Z,18.78
2023-05-14T15:19:32.354Z,18.68
2023-05-14T15:21:58.928Z,18.61
2023-05-14T15:24:26.238Z,18.66
2023-05-14T15:26:53.750Z,18.75
2023-05-14T15:29:20.567Z,18.76
2023-05-14T15:31:47.469Z,18.86
2023-05-14T15:34:14.050Z,18.76
2023-05-14T15:36:40.828Z,18.91
2023-05-14T15:39:10.237Z,18.93
2023-05-14T15:41:37.124Z,18.79
2023-05-14T15:44:03.966Z,18.59
2023-05-14T15:46:31.041Z,18.49
2023-05-14T15:48:57.983Z,18.46
2023-05-14T15:51:24.558Z,18.50
2023-05-14T15:53:53.543Z,18.39
2023-05-14T15:56:21.202Z,18.47
2023-05-14T15:58:48.307Z,18.49
2023-05-14T16:01:14.908Z,18.51
2023-05-14T16:03:41.698Z,18.61
2023-05-14T16:06:08.384Z,18.74
2023-05-14T16:08:34.917Z,18.39
2023-05-14T16:11:01.615Z,18.23
2023-05-14T16:13:28.243Z,18.14
2023-05-14T16:15:55.198Z,17.99
2023-05-14T16:18:22.353Z,17.91
2023-05-14T16:20:48.889Z,17.62
2023-05-14T16:23:15.536Z,17.59
2023-05-14T16:25:42.186Z,17.48
2023-05-14T16:28:08.893Z,17.30
2023-05-14T16:30:35.573Z,17.19
2023-05-14T16:33:02.150Z,17.13
2023-05-14T16:35:28.919Z,17.08
2023-05-14T16:37:56.159Z,17.02
2023-05-14T16:40:23.747Z,16.99
2023-05-14T16:42:51.197Z,17.02
2023-05-14T16:45:18.056Z,16.89
2023-05-14T16:47:44.624Z,16.94
2023-05-14T16:50:11.727Z,16.69
2023-05-14T16:52:38.252Z,16.82
2023-05-14T16:55:05.282Z,16.75
2023-05-14T16:57:32.091Z,16.54
2023-05-14T16:59:58.700Z,16.55
2023-05-14T17:02:25.668Z,16.32
2023-05-14T17:04:54.172Z,16.23
2023-05-14T17:07:20.797Z,16.17
2023-05-14T17:09:47.398Z,16.12
2023-05-14T17:12:14.051Z,16.08
2023-05-14T17:14:40.921Z,15.86
2023-05-14T17:17:07.529Z,15.66
2023-05-14T17:19:34.282Z,15.51
2023-05-14T17:22:00.990Z,15.39
2023-05-14T17:24:27.517Z,15.31
2023-05-14T17:26:54.084Z,15.36
2023-05-14T17:29:20.676Z,15.38
2023-05-14T17:31:48.316Z,15.23
2023-05-14T17:34:15.019Z,15.10
2023-05-14T17:36:41.572Z,15.03
2023-05-14T17:39:08.125Z,15.07
2023-05-14T17:41:34.952Z,15.01
2023-05-14T17:44:01.531Z,15.00
2023-05-14T17:46:28.221Z,14.75
2023-05-14T17:48:54.838Z,14.81
2023-05-14T17:51:21.361Z,14.76
2023-05-14T17:53:47.914Z,14.65
2023-05-14T17:56:16.544Z,14.54
2023-05-14T17:58:43.283Z,14.57
2023-05-14T18:01:09.995Z,14.50
2023-05-14T18:03:36.700Z,14.42
2023-05-14T18:06:03.896Z,14.37
2023-05-14T18:08:30.610Z,14.23
2023-05-14T18:10:58.491Z,14.23
2023-05-14T18:13:25.157Z,14.21
2023-05-14T18:15:54.258Z,14.18
2023-05-14T18:18:21.744Z,14.01
2023-05-14T18:20:49.503Z,13.94
2023-05-14T18:23:16.233Z,13.87
2023-05-14T18:25:43.076Z,13.78
2023-05-14T18:28:09.815Z,13.71
2023-05-14T18:30:36.391Z,13.64
2023-05-14T18:33:03.573Z,13.56
2023-05-14T18:35:30.880Z,13.49
2023-05-14T18:37:57.511Z,13.42
2023-05-14T18:40:24.068Z,13.35
2023-05-14T18:42:50.821Z,13.31
2023-05-14T18:45:17.536Z,13.25
2023-05-14T18:47:44.170Z,13.21
2023-05-14T18:50:11.119Z,13.20
2023-05-14T18:52:38.225Z,13.20
2023-05-14T18:55:05.264Z,13.16
2023-05-14T18:57:34.688Z,13.11
2023-05-14T19:00:02.071Z,13.06
2023-05-14T19:02:28.955Z,13.02
2023-05-14T19:04:56.266Z,13.00
2023-05-14T19:07:22.979Z,12.93
2023-05-14T19:09:49.531Z,12.94
2023-05-14T19:12:16.348Z,12.85
2023-05-14T19:14:43.046Z,12.87
2023-05-14T19:17:09.777Z,12.79
2023-05-14T19:19:36.655Z,12.73
2023-05-14T19:22:03.316Z,12.69
2023-05-14T19:24:30.279Z,12.65
2023-05-14T19:26:57.026Z,12.57
2023-05-14T19:29:23.619Z,12.57
2023-05-14T19:31:50.281Z,12.54
2023-05-14T19:34:16.936Z,12.52
2023-05-14T19:36:43.583Z,12.46
2023-05-14T19:39:10.933Z,12.49
2023-05-14T19:41:37.510Z,12.43
2023-05-14T19:44:04.190Z,12.40
2023-05-14T19:46:30.832Z,12.36
2023-05-14T19:48:57.456Z,12.35
2023-05-14T19:51:25.337Z,12.37
2023-05-14T19:53:51.925Z,12.32
2023-05-14T19:56:18.517Z,12.27
2023-05-14T19:58:45.193Z,12.28
2023-05-14T20:01:12.081Z,12.25
2023-05-14T20:03:38.927Z,12.23
2023-05-14T20:06:07.057Z,12.19
2023-05-14T20:08:33.832Z,12.17
2023-05-14T20:11:00.667Z,12.16
2023-05-14T20:13:27.269Z,12.16
2023-05-14T20:15:55.280Z,12.11
2023-05-14T20:18:21.911Z,12.08
2023-05-14T20:20:49.093Z,12.07
2023-05-14T20:23:15.995Z,12.03
2023-05-14T20:25:43.105Z,11.98
2023-05-14T20:28:10.496Z,12.02
2023-05-14T20:30:37.091Z,11.96
2023-05-14T20:33:04.124Z,11.96
2023-05-14T20:35:31.131Z,11.92
2023-05-14T20:37:57.736Z,11.92
2023-05-14T20:40:24.841Z,11.92
2023-05-14T20:42:52.260Z,11.89
2023-05-14T20:45:19.069Z,11.83
2023-05-14T20:47:45.708Z,11.80
2023-05-14T20:50:13.650Z,11.79
2023-05-14T20:52:40.436Z,11.73
2023-05-14T20:55:08.011Z,11.73
2023-05-14T20:57:34.583Z,11.70
2023-05-14T21:00:02.490Z,11.64
2023-05-14T21:02:29.192Z,11.61
2023-05-14T21:04:55.910Z,11.61
2023-05-14T21:07:22.756Z,11.57
2023-05-14T21:09:52.379Z,11.54
2023-05-14T21:12:19.421Z,11.56
2023-05-14T21:14:46.227Z,11.57
2023-05-14T21:17:12.919Z,11.53
2023-05-14T21:19:39.664Z,11.50
2023-05-14T21:22:07.110Z,11.46
2023-05-14T21:24:33.659Z,11.37
2023-05-14T21:27:00.318Z,11.35
2023-05-14T21:29:26.864Z,11.34
2023-05-14T21:31:53.422Z,11.34
2023-05-14T21:34:20.469Z,11.27
2023-05-14T21:36:47.502Z,11.25
2023-05-14T21:39:14.038Z,11.18
2023-05-14T21:41:40.632Z,11.17
2023-05-14T21:44:07.124Z,11.18
2023-05-14T21:46:33.860Z,11.17
2023-05-14T21:49:00.607Z,11.11
2023-05-14T21:51:27.275Z,11.07
2023-05-14T21:53:53.805Z,11.06
2023-05-14T21:56:21.178Z,11.07
2023-05-14T21:58:47.780Z,11.07
2023-05-14T22:01:14.328Z,11.06
2023-05-14T22:03:41.480Z,11.02
2023-05-14T22:06:08.072Z,11.00
2023-05-14T22:08:34.654Z,11.02
2023-05-14T22:11:01.334Z,10.99
2023-05-14T22:13:27.975Z,11.01
2023-05-14T22:16:04.902Z,11.05
2023-05-14T22:18:36.672Z,11.06
2023-05-14T22:21:03.691Z,11.05
2023-05-14T22:23:30.420Z,11.08
2023-05-14T22:25:57.968Z,11.10
2023-05-14T22:28:24.607Z,11.09
2023-05-14T22:30:51.222Z,11.07
2023-05-14T22:33:19.291Z,11.09
2023-05-14T22:35:45.915Z,11.07
2023-05-14T22:38:13.585Z,11.11
2023-05-14T22:40:40.179Z,11.10
2023-05-14T22:43:06.744Z,11.14
2023-05-14T22:45:33.375Z,11.07
2023-05-14T22:48:00.059Z,11.17
2023-05-14T22:50:26.850Z,11.17
2023-05-14T22:52:53.380Z,11.20
2023-05-14T22:55:19.915Z,11.17
2023-05-14T22:57:46.507Z,11.14
2023-05-14T23:00:13.894Z,11.16
2023-05-14T23:02:40.687Z,11.15
2023-05-14T23:05:08.563Z,11.15
2023-05-14T23:07:35.467Z,11.13
2023-05-14T23:10:02.181Z,11.14
2023-05-14T23:12:28.748Z,11.12
2023-05-14T23:14:55.494Z,11.15
2023-05-14T23:17:22.164Z,11.16
2023-05-14T23:19:48.874Z,11.16
2023-05-14T23:22:15.650Z,11.14
2023-05-14T23:24:42.219Z,11.15
2023-05-14T23:27:09.133Z,11.14
2023-05-14T23:29:35.648Z,11.13
2023-05-14T23:32:02.326Z,11.14
2023-05-14T23:34:28.895Z,11.12
2023-05-14T23:36:55.949Z,11.10
2023-05-14T23:39:22.784Z,11.07
2023-05-14T23:41:49.429Z,11.05
2023-05-14T23:44:16.207Z,11.07
2023-05-14T23:46:42.846Z,11.01
2023-05-14T23:49:09.483Z,11.02
2023-05-14T23:51:37.745Z,10.98
2023-05-14T23:54:04.682Z,10.93
2023-05-14T23:56:31.714Z,10.88
2023-05-14T23:58:58.279Z,10.85
